createdAt,value
2023-11-09T00:02:12.402Z,99.99
2023-11-09T00:05:14.852Z,99.99
2023-11-09T00:08:17.560Z,99.99
2023-11-09T00:11:21.689Z,99.99
2023-11-09T00:14:24.023Z,99.99
2023-11-09T00:17:26.540Z,99.99
2023-11-09T00:20:28.901Z,99.99
2023-11-09T00:23:32.097Z,99.99
2023-11-09T00:26:34.515Z,99.99
2023-11-09T00:29:37.255Z,99.99
2023-11-09T00:32:39.628Z,99.99
2023-11-09T00:35:41.991Z,99.99
2023-11-09T00:38:50.905Z,99.99
2023-11-09T00:41:53.440Z,99.99
2023-11-09T00:44:55.823Z,99.99
2023-11-09T00:47:59.062Z,99.99
2023-11-09T00:51:01.759Z,99.99
2023-11-09T00:54:05.014Z,99.99
2023-11-09T00:57:07.352Z,99.99
2023-11-09T01:00:10.269Z,99.99
2023-11-09T01:03:12.682Z,99.99
2023-11-09T01:06:15.068Z,99.99
2023-11-09T01:09:18.469Z,99.99
2023-11-09T01:12:20.712Z,99.99
2023-11-09T01:15:23.426Z,99.99
2023-11-09T01:18:25.655Z,99.99
2023-11-09T01:21:28.007Z,99.99
2023-11-09T01:24:30.324Z,99.99
2023-11-09T01:27:32.620Z,99.99
2023-11-09T01:30:34.901Z,99.99
2023-11-09T01:33:37.463Z,99.99
2023-11-09T01:36:40.408Z,99.99
2023-11-09T01:39:42.697Z,99.99
2023-11-09T01:42:45.194Z,99.99
2023-11-09T01:45:52.176Z,99.99
2023-11-09T01:48:57.270Z,99.99
2023-11-09T01:51:59.788Z,99.99
2023-11-09T01:55:03.335Z,99.99
2023-11-09T01:58:06.523Z,99.99
2023-11-09T02:01:12.681Z,99.99
2023-11-09T02:04:16.060Z,99.99
2023-11-09T02:07:19.095Z,99.99
2023-11-09T02:10:22.628Z,99.99
2023-11-09T02:13:25.506Z,99.99
2023-11-09T02:16:28.466Z,99.99
2023-11-09T02:19:34.303Z,99.99
2023-11-09T02:22:39.828Z,99.99
2023-11-09T02:25:43.638Z,99.99
2023-11-09T02:28:49.875Z,99.99
2023-11-09T02:31:53.631Z,99.99
2023-11-09T02:34:57.684Z,99.99
2023-11-09T02:37:59.939Z,99.99
2023-11-09T02:41:02.826Z,99.99
2023-11-09T02:44:05.587Z,99.99
2023-11-09T02:47:07.986Z,99.99
2023-11-09T02:50:10.536Z,99.99
2023-11-09T02:53:12.783Z,99.99
2023-11-09T02:56:15.136Z,99.99
2023-11-09T02:59:18.001Z,99.99
2023-11-09T03:02:20.313Z,99.99
2023-11-09T03:05:23.534Z,99.99
2023-11-09T03:08:28.049Z,99.99
2023-11-09T03:11:30.792Z,99.99
2023-11-09T03:14:36.195Z,99.99
2023-11-09T03:17:45.047Z,99.99
2023-11-09T03:20:47.647Z,99.99
2023-11-09T03:23:50.629Z,99.99
2023-11-09T03:26:52.937Z,99.99
2023-11-09T03:29:55.213Z,99.99
2023-11-09T03:33:00.607Z,99.99
2023-11-09T03:36:02.981Z,99.99
2023-11-09T03:39:05.537Z,99.99
2023-11-09T03:42:08.062Z,99.99
2023-11-09T03:45:10.673Z,99.99
2023-11-09T03:48:13.253Z,99.99
2023-11-09T03:51:15.576Z,99.99
2023-11-09T03:54:17.831Z,99.99
2023-11-09T03:57:21.174Z,99.99
2023-11-09T04:00:23.406Z,99.99
2023-11-09T04:03:25.745Z,99.99
2023-11-09T04:06:28.124Z,99.99
2023-11-09T04:09:30.383Z,99.99
2023-11-09T04:12:33.213Z,99.99
2023-11-09T04:15:37.153Z,99.99
2023-11-09T04:18:39.733Z,99.99
2023-11-09T04:21:42.079Z,99.99
2023-11-09T04:24:44.344Z,99.99
2023-11-09T04:27:46.737Z,99.99
2023-11-09T04:30:50.872Z,99.99
2023-11-09T04:34:03.601Z,99.99
2023-11-09T04:37:08.863Z,99.99
2023-11-09T04:40:16.743Z,99.99
2023-11-09T04:43:19.458Z,99.99
2023-11-09T04:46:21.841Z,99.99
2023-11-09T04:49:24.237Z,99.99
2023-11-09T04:52:28.295Z,99.99
2023-11-09T04:55:44.541Z,99.99
2023-11-09T04:58:49.962Z,99.99
2023-11-09T05:02:12.624Z,99.99
2023-11-09T05:05:33.413Z,99.99
2023-11-09T05:08:35.873Z,99.99
2023-11-09T05:11:38.199Z,99.99
2023-11-09T05:14:40.934Z,99.99
2023-11-09T05:17:43.296Z,99.99
2023-11-09T05:20:45.715Z,99.99
2023-11-09T05:23:47.937Z,99.99
2023-11-09T05:26:52.260Z,99.99
2023-11-09T05:29:54.528Z,99.99
2023-11-09T05:32:57.299Z,99.99
2023-11-09T05:36:01.558Z,99.99
2023-11-09T05:39:06.313Z,99.99
2023-11-09T05:42:10.519Z,99.99
2023-11-09T05:45:12.963Z,99.99
2023-11-09T05:48:15.365Z,99.99
2023-11-09T05:51:22.525Z,99.99
2023-11-09T05:54:25.698Z,99.99
2023-11-09T05:57:27.968Z,99.99
2023-11-09T06:00:32.552Z,99.99
2023-11-09T06:03:35.072Z,99.99
2023-11-09T06:06:39.123Z,99.99
2023-11-09T06:09:42.990Z,99.99
2023-11-09T06:12:45.257Z,99.99
2023-11-09T06:15:47.681Z,99.99
2023-11-09T06:18:51.503Z,99.99
2023-11-09T06:21:55.746Z,99.99
2023-11-09T06:24:58.216Z,99.99
2023-11-09T06:28:03.347Z,99.99
2023-11-09T06:31:08.069Z,99.99
2023-11-09T06:34:15.882Z,99.99
2023-11-09T06:37:18.518Z,99.99
2023-11-09T06:40:20.918Z,99.99
2023-11-09T06:43:23.419Z,99.99
2023-11-09T06:46:28.057Z,99.99
2023-11-09T06:49:31.193Z,99.99
2023-11-09T06:52:35.129Z,99.99
2023-11-09T06:55:37.572Z,99.99
2023-11-09T06:58:39.896Z,99.27
2023-11-09T07:01:43.413Z,96.72
2023-11-09T07:04:45.839Z,95.79
2023-11-09T07:07:51.014Z,95.22
2023-11-09T07:10:53.403Z,94.90
2023-11-09T07:13:55.896Z,93.91
2023-11-09T07:16:58.224Z,92.75
2023-11-09T07:20:01.884Z,91.85
2023-11-09T07:23:08.875Z,93.51
2023-11-09T07:26:12.124Z,92.59
2023-11-09T07:29:15.054Z,89.39
2023-11-09T07:32:18.011Z,86.21
2023-11-09T07:35:20.255Z,87.57
2023-11-09T07:38:22.713Z,85.33
2023-11-09T07:41:28.208Z,85.73
2023-11-09T07:44:30.759Z,85.49
2023-11-09T07:47:33.044Z,85.13
2023-11-09T07:50:35.300Z,83.57
2023-11-09T07:53:38.052Z,84.84
2023-11-09T07:56:40.854Z,87.03
2023-11-09T07:59:46.263Z,87.33
2023-11-09T08:02:48.585Z,87.47
2023-11-09T08:05:51.034Z,87.73
2023-11-09T08:08:54.159Z,84.12
2023-11-09T08:11:56.679Z,84.86
2023-11-09T08:14:59.076Z,85.38
2023-11-09T08:18:01.418Z,85.66
2023-11-09T08:21:05.017Z,86.17
2023-11-09T08:24:08.447Z,86.12
2023-11-09T08:27:10.799Z,86.07
2023-11-09T08:30:17.028Z,85.27
2023-11-09T08:33:24.531Z,85.45
2023-11-09T08:36:27.017Z,85.20
2023-11-09T08:39:29.353Z,84.72
2023-11-09T08:42:34.627Z,82.73
2023-11-09T08:45:37.861Z,82.06
2023-11-09T08:48:41.813Z,81.48
2023-11-09T08:51:45.117Z,81.44
2023-11-09T08:54:47.367Z,79.65
2023-11-09T08:57:49.749Z,77.92
2023-11-09T09:00:54.666Z,77.22
2023-11-09T09:03:58.757Z,77.03
2023-11-09T09:07:01.416Z,77.13
2023-11-09T09:10:06.409Z,76.06
2023-11-09T09:13:09.563Z,76.71
2023-11-09T09:16:16.867Z,76.32
2023-11-09T09:19:21.852Z,76.99
2023-11-09T09:22:24.802Z,77.14
2023-11-09T09:25:27.392Z,78.63
2023-11-09T09:28:29.841Z,76.45
2023-11-09T09:31:32.306Z,76.31
2023-11-09T09:34:35.931Z,75.07
2023-11-09T09:37:43.167Z,74.77
2023-11-09T09:40:50.633Z,74.53
2023-11-09T09:43:54.732Z,74.22
2023-11-09T09:46:59.652Z,73.98
2023-11-09T09:50:02.680Z,73.52
2023-11-09T09:53:11.398Z,72.86
2023-11-09T09:56:14.231Z,70.55
2023-11-09T09:59:19.462Z,69.81
2023-11-09T10:02:22.300Z,64.72
2023-11-09T10:05:29.678Z,63.89
2023-11-09T10:08:32.794Z,66.22
2023-11-09T10:11:41.977Z,67.23
2023-11-09T10:14:44.424Z,69.14
2023-11-09T10:17:47.600Z,68.99
2023-11-09T10:21:02.404Z,68.12
2023-11-09T10:24:08.258Z,66.64
2023-11-09T10:27:10.509Z,67.12
2023-11-09T10:30:15.777Z,68.22
2023-11-09T10:33:19.295Z,69.27
2023-11-09T10:36:23.647Z,68.17
2023-11-09T10:39:26.255Z,66.33
2023-11-09T10:42:32.319Z,67.01
2023-11-09T10:45:40.764Z,63.89
2023-11-09T10:48:49.652Z,62.23
2023-11-09T10:51:57.856Z,62.55
2023-11-09T10:55:01.911Z,61.97
2023-11-09T10:58:06.768Z,59.48
2023-11-09T11:01:12.813Z,55.66
2023-11-09T11:04:16.223Z,53.63
2023-11-09T11:07:23.060Z,52.13
2023-11-09T11:10:27.954Z,50.41
2023-11-09T11:13:33.339Z,49.80
2023-11-09T11:16:54.884Z,51.71
2023-11-09T11:20:19.061Z,48.57
2023-11-09T11:23:40.372Z,47.91
2023-11-09T11:27:05.881Z,45.48
2023-11-09T11:30:26.141Z,45.47
2023-11-09T11:33:28.431Z,48.69
2023-11-09T11:36:34.780Z,46.52
2023-11-09T11:39:40.903Z,48.21
2023-11-09T11:42:43.395Z,47.34
2023-11-09T11:45:50.012Z,47.20
2023-11-09T11:48:58.665Z,45.45
2023-11-09T11:52:01.101Z,47.84
2023-11-09T11:55:04.508Z,45.93
2023-11-09T11:58:07.688Z,45.12
2023-11-09T12:01:31.591Z,48.62
2023-11-09T12:04:36.487Z,48.70
2023-11-09T12:07:42.972Z,45.33
2023-11-09T12:10:45.870Z,46.20
2023-11-09T12:13:48.493Z,47.58
2023-11-09T12:16:51.282Z,47.61
2023-11-09T12:19:54.548Z,50.56
2023-11-09T12:23:11.684Z,49.79
2023-11-09T12:26:19.273Z,46.71
2023-11-09T12:29:21.580Z,45.80
2023-11-09T12:32:23.888Z,46.74
2023-11-09T12:35:26.169Z,46.04
2023-11-09T12:38:28.523Z,48.90
2023-11-09T12:41:34.280Z,49.19
2023-11-09T12:44:43.486Z,49.26
2023-11-09T12:47:47.359Z,49.30
2023-11-09T12:50:49.681Z,47.47
2023-11-09T12:53:53.372Z,49.10
2023-11-09T12:56:58.751Z,46.56
2023-11-09T13:00:05.275Z,47.95
2023-11-09T13:03:09.072Z,45.98
2023-11-09T13:06:16.566Z,45.45
2023-11-09T13:09:33.564Z,47.78
2023-11-09T13:12:37.673Z,48.64
2023-11-09T13:15:43.026Z,50.64
2023-11-09T13:18:52.079Z,49.36
2023-11-09T13:21:54.498Z,50.94
2023-11-09T13:24:56.768Z,49.23
2023-11-09T13:27:59.018Z,49.63
2023-11-09T13:31:07.988Z,51.28
2023-11-09T13:34:10.598Z,50.44
2023-11-09T13:37:21.821Z,50.88
2023-11-09T13:40:24.071Z,49.39
2023-11-09T13:43:29.763Z,48.85
2023-11-09T13:46:40.448Z,49.80
2023-11-09T13:49:43.166Z,50.47
2023-11-09T13:52:51.616Z,49.18
2023-11-09T13:56:05.611Z,48.80
2023-11-09T13:59:14.141Z,51.62
2023-11-09T14:02:20.729Z,51.28
2023-11-09T14:05:24.383Z,51.86
2023-11-09T14:08:27.978Z,51.89
2023-11-09T14:11:30.587Z,53.86
2023-11-09T14:14:45.610Z,54.13
2023-11-09T14:17:52.185Z,55.22
2023-11-09T14:21:08.310Z,56.65
2023-11-09T14:24:11.297Z,55.67
2023-11-09T14:27:18.323Z,56.93
2023-11-09T14:30:33.209Z,56.00
2023-11-09T14:33:37.332Z,56.23
2023-11-09T14:36:46.488Z,57.67
2023-11-09T14:40:27.497Z,58.52
2023-11-09T14:43:32.208Z,58.67
2023-11-09T14:46:35.127Z,60.27
2023-11-09T14:49:51.006Z,60.80
2023-11-09T14:52:57.523Z,64.96
2023-11-09T14:56:00.513Z,67.55
2023-11-09T14:59:06.622Z,69.10
2023-11-09T15:02:09.077Z,70.52
2023-11-09T15:05:13.662Z,71.54
2023-11-09T15:08:16.261Z,72.67
2023-11-09T15:11:21.951Z,73.09
2023-11-09T15:14:24.206Z,73.98
2023-11-09T15:17:26.774Z,74.50
2023-11-09T15:20:29.825Z,75.07
2023-11-09T15:23:35.046Z,75.96
2023-11-09T15:26:39.129Z,76.56
2023-11-09T15:29:43.020Z,77.09
2023-11-09T15:32:45.334Z,77.66
2023-11-09T15:35:49.183Z,78.20
2023-11-09T15:38:51.646Z,78.69
2023-11-09T15:41:54.900Z,79.11
2023-11-09T15:44:58.383Z,80.16
2023-11-09T15:48:02.166Z,80.95
2023-11-09T15:51:04.808Z,81.87
2023-11-09T15:54:09.304Z,82.58
2023-11-09T15:57:12.448Z,82.75
2023-11-09T16:00:15.243Z,82.87
2023-11-09T16:03:18.515Z,83.27
2023-11-09T16:06:20.860Z,83.50
2023-11-09T16:09:28.729Z,83.63
2023-11-09T16:12:31.168Z,83.81
2023-11-09T16:15:33.613Z,83.74
2023-11-09T16:18:35.926Z,83.51
2023-11-09T16:21:39.135Z,83.74
2023-11-09T16:24:46.567Z,83.88
2023-11-09T16:27:50.776Z,84.15
2023-11-09T16:30:53.890Z,84.39
2023-11-09T16:33:56.179Z,83.88
2023-11-09T16:36:59.182Z,83.71
2023-11-09T16:40:01.490Z,84.08
2023-11-09T16:43:04.471Z,84.09
2023-11-09T16:46:08.394Z,84.17
2023-11-09T16:49:12.314Z,84.40
2023-11-09T16:52:15.659Z,84.65
2023-11-09T16:55:17.952Z,85.03
2023-11-09T16:58:20.337Z,85.10
2023-11-09T17:01:23.944Z,85.43
2023-11-09T17:04:26.549Z,85.72
2023-11-09T17:07:43.277Z,86.35
2023-11-09T17:10:47.971Z,86.50
2023-11-09T17:13:50.370Z,87.15
2023-11-09T17:16:53.628Z,87.47
2023-11-09T17:19:56.850Z,87.94
2023-11-09T17:22:59.132Z,88.38
2023-11-09T17:26:01.521Z,88.74
2023-11-09T17:29:04.009Z,89.05
2023-11-09T17:32:06.283Z,89.12
2023-11-09T17:35:09.380Z,89.21
2023-11-09T17:38:12.056Z,89.35
2023-11-09T17:41:15.543Z,89.41
2023-11-09T17:44:17.880Z,89.70
2023-11-09T17:47:20.161Z,89.80
2023-11-09T17:50:23.009Z,90.19
2023-11-09T17:53:26.185Z,90.45
2023-11-09T17:56:29.605Z,90.62
2023-11-09T17:59:34.041Z,90.74
2023-11-09T18:02:36.664Z,90.63
2023-11-09T18:05:38.996Z,90.76
2023-11-09T18:08:41.633Z,90.83
2023-11-09T18:11:44.922Z,90.82
2023-11-09T18:14:47.912Z,90.78
2023-11-09T18:17:51.233Z,90.62
2023-11-09T18:20:54.222Z,90.44
2023-11-09T18:23:59.362Z,90.34
2023-11-09T18:27:01.646Z,89.99
2023-11-09T18:30:05.359Z,89.85
2023-11-09T18:33:08.293Z,90.11
2023-11-09T18:36:10.674Z,90.03
2023-11-09T18:39:13.675Z,90.07
2023-11-09T18:42:19.086Z,89.72
2023-11-09T18:45:21.422Z,89.91
2023-11-09T18:48:24.926Z,89.99
2023-11-09T18:51:28.725Z,89.87
2023-11-09T18:54:31.150Z,89.99
2023-11-09T18:57:33.421Z,89.93
2023-11-09T19:00:35.776Z,90.13
2023-11-09T19:06:43.313Z,90.08
2023-11-09T19:09:45.673Z,90.63
2023-11-09T19:12:49.023Z,90.72
2023-11-09T19:15:52.100Z,90.91
2023-11-09T19:18:54.927Z,91.19
2023-11-09T19:25:04.625Z,90.87
2023-11-09T19:28:06.907Z,90.95
2023-11-09T19:31:10.006Z,90.98
2023-11-09T19:34:12.509Z,91.11
2023-11-09T19:37:14.842Z,90.68
2023-11-09T19:40:17.159Z,91.00
2023-11-09T19:43:19.404Z,91.14
2023-11-09T19:46:21.825Z,91.28
2023-11-09T19:49:24.105Z,91.40
2023-11-09T19:52:27.073Z,91.37
2023-11-09T19:55:29.728Z,91.36
2023-11-09T19:58:31.993Z,91.34
2023-11-09T20:01:34.597Z,91.36
2023-11-09T20:04:37.201Z,91.58
2023-11-09T20:07:40.171Z,91.56
2023-11-09T20:10:42.506Z,92.14
2023-11-09T20:13:44.927Z,92.17
2023-11-09T20:16:47.140Z,91.79
2023-11-09T20:19:49.487Z,91.66
2023-11-09T20:22:54.742Z,91.82
2023-11-09T20:25:57.058Z,91.83
2023-11-09T20:28:59.513Z,92.11
2023-11-09T20:32:01.981Z,92.17
2023-11-09T20:35:12.428Z,92.16
2023-11-09T20:38:15.652Z,92.31
2023-11-09T20:41:17.893Z,92.81
2023-11-09T20:44:20.863Z,92.88
2023-11-09T20:47:24.261Z,93.14
2023-11-09T20:50:26.593Z,93.65
2023-11-09T20:53:29.124Z,93.78
2023-11-09T20:56:31.427Z,94.40
2023-11-09T20:59:36.740Z,94.28
2023-11-09T21:02:39.191Z,94.61
2023-11-09T21:05:41.530Z,95.23
2023-11-09T21:08:43.823Z,95.53
2023-11-09T21:11:46.244Z,95.83
2023-11-09T21:14:49.334Z,96.20
2023-11-09T21:17:51.717Z,96.35
2023-11-09T21:20:54.042Z,96.08
2023-11-09T21:23:56.310Z,96.19
2023-11-09T21:26:59.118Z,96.19
2023-11-09T21:30:01.849Z,96.07
2023-11-09T21:33:04.449Z,95.92
2023-11-09T21:36:15.109Z,95.85
2023-11-09T21:39:22.052Z,95.86
2023-11-09T21:42:24.416Z,95.70
2023-11-09T21:45:30.693Z,95.22
2023-11-09T21:48:33.171Z,95.03
2023-11-09T21:51:42.222Z,95.41
2023-11-09T21:54:44.527Z,96.02
2023-11-09T21:57:47.791Z,96.43
2023-11-09T22:00:57.131Z,96.56
2023-11-09T22:03:59.507Z,96.58
2023-11-09T22:07:01.832Z,96.69
2023-11-09T22:10:04.650Z,96.48
2023-11-09T22:13:08.078Z,96.50
2023-11-09T22:16:13.956Z,96.99
2023-11-09T22:19:16.296Z,96.89
2023-11-09T22:22:18.612Z,96.81
2023-11-09T22:25:21.230Z,97.03
2023-11-09T22:28:23.595Z,97.59
2023-11-09T22:31:25.880Z,97.39
2023-11-09T22:34:31.328Z,97.19
2023-11-09T22:37:36.622Z,97.33
2023-11-09T22:40:41.790Z,97.80
2023-11-09T22:43:44.953Z,97.69
2023-11-09T22:46:47.338Z,97.44
2023-11-09T22:49:49.592Z,97.34
2023-11-09T22:52:51.854Z,97.96
2023-11-09T22:55:54.446Z,98.01
2023-11-09T22:58:56.853Z,98.15
2023-11-09T23:01:59.169Z,98.04
2023-11-09T23:05:01.449Z,98.30
2023-11-09T23:08:07.160Z,98.28
2023-11-09T23:11:09.401Z,98.27
2023-11-09T23:14:11.654Z,98.52
2023-11-09T23:17:13.946Z,98.17
2023-11-09T23:20:16.506Z,98.33
2023-11-09T23:23:18.763Z,98.44
2023-11-09T23:26:21.072Z,98.64
2023-11-09T23:29:23.418Z,98.62
2023-11-09T23:32:25.866Z,98.80
2023-11-09T23:35:30.278Z,98.95
2023-11-09T23:38:32.621Z,99.06
2023-11-09T23:41:34.887Z,98.98
2023-11-09T23:44:37.679Z,98.82
2023-11-09T23:47:40.434Z,98.75
2023-11-09T23:50:42.746Z,98.79
2023-11-09T23:53:44.993Z,98.83
2023-11-09T23:56:47.308Z,98.65
2023-11-09T23:59:49.550Z,98.71
